Mayo, MD

6:48 AM EDT on July 29, 2016 (GMT -0400)
MARITIME | | Change Station

Elev 0 ft 38.90 °N, 76.44 °W | Updated 48 minutes ago

Overcast
Overcast
74.0 °F
Feels Like 70 °F
N
16.0
Wind Variable Wind from NNW
Gusts 0.0 mph

Today
High -- | Low -- °F
--% Chance of Precip.
Yesterday
High -- | Low -- °F
Precip. -- in
Pressure 29.82 in
Visibility 10.0 miles
Clouds Overcast 1400 ft
Heat Index 70 °F
Dew Point 74.0 °F
Humidity 98%
Rainfall in
Snow Depth Not available.
6:04 AM 8:19 PM
Waning Crescent, 23% visible
SPECI KNAK 291035Z AUTO 35009KT 10SM OVC014 24/23 A2982 RMK AO2 RAE12 P0000 T02440228
Pressure 29.82 in
Visibility 10.0 miles
Clouds Overcast 1400 ft
Heat Index 70 °F
Dew Point 74.0 °F
Humidity 98%
Rainfall in
Snow Depth Not available.
6:04 AM 8:19 PM
Waning Crescent, 23% visible
SPECI KNAK 291035Z AUTO 35009KT 10SM OVC014 24/23 A2982 RMK AO2 RAE12 P0000 T02440228

10-Day Weather Forecast

Almanac

Astronomy

Jul. 29, 2016 Rise Set
Actual Time
Civil Twilight
Nautical Twilight
Astronomical Twilight
Moon
Length of Visible Light
Length of Day
Tomorrow will be .
, % of the Moon is Illuminated

Today's Extremes

State Highs State Lows

Community

WunderPhotos

Upload Photos

1,928,311 photos uploaded!

WunderBlog® & News

Nearby

Air Quality

  Air Quality AQ Index Pollutant
Not available.

Snow Depth

Station Depth Elevation

Earthquake Activity

City Distance Mag. Time & Date
Minimum magnitude displayed is 2.5.

Coastal Water Temperatures

Place Temperature

Stations

Nearby Weather Stations

Station Location Temp. Windchill Dew Point Humidity Wind Precip. Elev Updated Type
                   

Watches & Warnings

There are currently no watches in effect.